sensor_id;sensor_type;location;lat;lon;timestamp;P1;durP1;ratioP1;P2;durP2;ratioP2
66874;SDS011;53784;52.630;4.896;2023-06-10T00:01:35;8.07;;;4.10;;
66874;SDS011;53784;52.630;4.896;2023-06-10T00:04:01;8.05;;;3.85;;
66874;SDS011;53784;52.630;4.896;2023-06-10T00:06:27;7.80;;;3.70;;
66874;SDS011;53784;52.630;4.896;2023-06-10T00:08:53;8.25;;;3.90;;
66874;SDS011;53784;52.630;4.896;2023-06-10T00:11:19;8.73;;;3.63;;
66874;SDS011;53784;52.630;4.896;2023-06-10T00:13:46;7.95;;;3.70;;
66874;SDS011;53784;52.630;4.896;2023-06-10T00:16:11;9.45;;;3.70;;
66874;SDS011;53784;52.630;4.896;2023-06-10T00:18:37;7.00;;;3.63;;
66874;SDS011;53784;52.630;4.896;2023-06-10T00:21:03;7.72;;;3.60;;
66874;SDS011;53784;52.630;4.896;2023-06-10T00:23:30;8.70;;;3.90;;
66874;SDS011;53784;52.630;4.896;2023-06-10T00:26:03;8.13;;;3.60;;
66874;SDS011;53784;52.630;4.896;2023-06-10T00:28:29;8.15;;;3.47;;
66874;SDS011;53784;52.630;4.896;2023-06-10T00:30:54;7.97;;;3.65;;
66874;SDS011;53784;52.630;4.896;2023-06-10T00:33:20;8.95;;;3.40;;
66874;SDS011;53784;52.630;4.896;2023-06-10T00:35:46;9.35;;;3.90;;
66874;SDS011;53784;52.630;4.896;2023-06-10T00:38:12;8.43;;;3.63;;
66874;SDS011;53784;52.630;4.896;2023-06-10T00:40:39;8.65;;;3.70;;
66874;SDS011;53784;52.630;4.896;2023-06-10T00:43:05;8.82;;;3.83;;
66874;SDS011;53784;52.630;4.896;2023-06-10T00:45:31;8.07;;;3.50;;
66874;SDS011;53784;52.630;4.896;2023-06-10T00:47:56;9.45;;;3.60;;
66874;SDS011;53784;52.630;4.896;2023-06-10T00:50:22;7.50;;;3.75;;
66874;SDS011;53784;52.630;4.896;2023-06-10T00:52:47;6.00;;;3.38;;
66874;SDS011;53784;52.630;4.896;2023-06-10T00:55:13;10.30;;;3.50;;
66874;SDS011;53784;52.630;4.896;2023-06-10T00:57:41;8.95;;;3.55;;
66874;SDS011;53784;52.630;4.896;2023-06-10T01:00:09;7.35;;;3.35;;
66874;SDS011;53784;52.630;4.896;2023-06-10T01:02:37;6.63;;;3.45;;
66874;SDS011;53784;52.630;4.896;2023-06-10T01:05:02;8.45;;;3.75;;
66874;SDS011;53784;52.630;4.896;2023-06-10T01:07:31;7.95;;;3.40;;
66874;SDS011;53784;52.630;4.896;2023-06-10T01:12:56;7.60;;;3.67;;
66874;SDS011;53784;52.630;4.896;2023-06-10T01:15:24;8.57;;;3.42;;
66874;SDS011;53784;52.630;4.896;2023-06-10T01:17:56;8.80;;;3.60;;
66874;SDS011;53784;52.630;4.896;2023-06-10T01:20:23;9.43;;;3.70;;
66874;SDS011;53784;52.630;4.896;2023-06-10T01:22:49;7.07;;;3.40;;
66874;SDS011;53784;52.630;4.896;2023-06-10T01:25:16;8.90;;;3.92;;
66874;SDS011;53784;52.630;4.896;2023-06-10T01:27:42;9.65;;;4.05;;
66874;SDS011;53784;52.630;4.896;2023-06-10T01:30:14;6.90;;;3.63;;
66874;SDS011;53784;52.630;4.896;2023-06-10T01:32:43;9.88;;;3.60;;
66874;SDS011;53784;52.630;4.896;2023-06-10T01:35:10;6.68;;;3.60;;
66874;SDS011;53784;52.630;4.896;2023-06-10T01:37:36;8.38;;;3.88;;
66874;SDS011;53784;52.630;4.896;2023-06-10T01:40:03;7.63;;;3.63;;
66874;SDS011;53784;52.630;4.896;2023-06-10T01:42:31;9.82;;;4.18;;
66874;SDS011;53784;52.630;4.896;2023-06-10T01:44:57;7.68;;;3.60;;
66874;SDS011;53784;52.630;4.896;2023-06-10T01:47:22;8.80;;;3.90;;
66874;SDS011;53784;52.630;4.896;2023-06-10T01:49:48;9.43;;;4.10;;
66874;SDS011;53784;52.630;4.896;2023-06-10T01:52:13;9.25;;;3.83;;
66874;SDS011;53784;52.630;4.896;2023-06-10T01:54:38;8.57;;;3.72;;
66874;SDS011;53784;52.630;4.896;2023-06-10T01:57:04;7.60;;;3.65;;
66874;SDS011;53784;52.630;4.896;2023-06-10T01:59:31;7.13;;;3.58;;
66874;SDS011;53784;52.630;4.896;2023-06-10T02:01:56;8.35;;;3.90;;
66874;SDS011;53784;52.630;4.896;2023-06-10T02:04:21;8.57;;;3.50;;
66874;SDS011;53784;52.630;4.896;2023-06-10T02:06:47;8.10;;;3.58;;
66874;SDS011;53784;52.630;4.896;2023-06-10T02:09:13;10.20;;;4.28;;
66874;SDS011;53784;52.630;4.896;2023-06-10T02:11:38;7.57;;;3.78;;
66874;SDS011;53784;52.630;4.896;2023-06-10T02:14:03;8.88;;;4.00;;
66874;SDS011;53784;52.630;4.896;2023-06-10T02:16:29;8.68;;;4.00;;
66874;SDS011;53784;52.630;4.896;2023-06-10T02:18:54;8.65;;;3.50;;
66874;SDS011;53784;52.630;4.896;2023-06-10T02:21:19;10.52;;;4.13;;
66874;SDS011;53784;52.630;4.896;2023-06-10T02:23:45;7.78;;;3.92;;
66874;SDS011;53784;52.630;4.896;2023-06-10T02:26:10;8.98;;;4.13;;
66874;SDS011;53784;52.630;4.896;2023-06-10T02:28:35;9.30;;;3.90;;
66874;SDS011;53784;52.630;4.896;2023-06-10T02:31:01;8.88;;;3.80;;
66874;SDS011;53784;52.630;4.896;2023-06-10T02:33:26;8.98;;;3.90;;
66874;SDS011;53784;52.630;4.896;2023-06-10T02:35:52;6.97;;;3.80;;
66874;SDS011;53784;52.630;4.896;2023-06-10T02:38:17;7.75;;;3.92;;
66874;SDS011;53784;52.630;4.896;2023-06-10T02:40:43;10.05;;;4.10;;
66874;SDS011;53784;52.630;4.896;2023-06-10T02:43:08;8.60;;;4.10;;
66874;SDS011;53784;52.630;4.896;2023-06-10T02:45:34;9.57;;;4.40;;
66874;SDS011;53784;52.630;4.896;2023-06-10T02:47:59;10.45;;;4.57;;
66874;SDS011;53784;52.630;4.896;2023-06-10T02:50:24;8.25;;;4.07;;
66874;SDS011;53784;52.630;4.896;2023-06-10T02:52:50;9.60;;;3.97;;
66874;SDS011;53784;52.630;4.896;2023-06-10T02:55:15;7.78;;;3.95;;
66874;SDS011;53784;52.630;4.896;2023-06-10T02:57:40;9.65;;;4.50;;
66874;SDS011;53784;52.630;4.896;2023-06-10T03:00:06;8.90;;;4.40;;
66874;SDS011;53784;52.630;4.896;2023-06-10T03:02:35;9.27;;;4.25;;
66874;SDS011;53784;52.630;4.896;2023-06-10T03:05:02;8.88;;;4.05;;
66874;SDS011;53784;52.630;4.896;2023-06-10T03:07:27;9.30;;;3.90;;
66874;SDS011;53784;52.630;4.896;2023-06-10T03:09:53;8.32;;;4.13;;
66874;SDS011;53784;52.630;4.896;2023-06-10T03:12:18;8.50;;;4.20;;
66874;SDS011;53784;52.630;4.896;2023-06-10T03:14:43;8.65;;;4.28;;
66874;SDS011;53784;52.630;4.896;2023-06-10T03:17:09;8.13;;;4.07;;
66874;SDS011;53784;52.630;4.896;2023-06-10T03:19:34;10.80;;;4.50;;
66874;SDS011;53784;52.630;4.896;2023-06-10T03:22:10;8.95;;;4.45;;
66874;SDS011;53784;52.630;4.896;2023-06-10T03:24:36;12.02;;;4.70;;
66874;SDS011;53784;52.630;4.896;2023-06-10T03:27:05;8.75;;;4.60;;
66874;SDS011;53784;52.630;4.896;2023-06-10T03:29:33;10.05;;;5.20;;
66874;SDS011;53784;52.630;4.896;2023-06-10T03:31:58;10.55;;;4.80;;
66874;SDS011;53784;52.630;4.896;2023-06-10T03:34:24;11.02;;;4.53;;
66874;SDS011;53784;52.630;4.896;2023-06-10T03:36:49;9.15;;;4.80;;
66874;SDS011;53784;52.630;4.896;2023-06-10T03:39:14;9.10;;;4.97;;
66874;SDS011;53784;52.630;4.896;2023-06-10T03:41:40;11.38;;;4.80;;
66874;SDS011;53784;52.630;4.896;2023-06-10T03:44:05;11.13;;;4.18;;
66874;SDS011;53784;52.630;4.896;2023-06-10T03:46:31;9.98;;;4.55;;
66874;SDS011;53784;52.630;4.896;2023-06-10T03:48:56;9.35;;;4.50;;
66874;SDS011;53784;52.630;4.896;2023-06-10T03:51:21;8.93;;;4.50;;
66874;SDS011;53784;52.630;4.896;2023-06-10T03:53:46;11.15;;;4.80;;
66874;SDS011;53784;52.630;4.896;2023-06-10T03:56:12;9.35;;;4.65;;
66874;SDS011;53784;52.630;4.896;2023-06-10T03:58:37;8.43;;;4.40;;
66874;SDS011;53784;52.630;4.896;2023-06-10T04:01:02;9.23;;;4.93;;
66874;SDS011;53784;52.630;4.896;2023-06-10T04:03:28;10.50;;;4.70;;
66874;SDS011;53784;52.630;4.896;2023-06-10T04:05:53;9.35;;;4.38;;
66874;SDS011;53784;52.630;4.896;2023-06-10T04:08:19;9.30;;;4.45;;
66874;SDS011;53784;52.630;4.896;2023-06-10T04:10:45;8.43;;;4.50;;
66874;SDS011;53784;52.630;4.896;2023-06-10T04:13:10;9.77;;;4.57;;
66874;SDS011;53784;52.630;4.896;2023-06-10T04:15:36;9.55;;;4.78;;
66874;SDS011;53784;52.630;4.896;2023-06-10T04:18:01;9.88;;;4.25;;
66874;SDS011;53784;52.630;4.896;2023-06-10T04:20:27;8.50;;;4.50;;
66874;SDS011;53784;52.630;4.896;2023-06-10T04:22:52;10.82;;;4.55;;
66874;SDS011;53784;52.630;4.896;2023-06-10T04:25:17;10.32;;;5.03;;
66874;SDS011;53784;52.630;4.896;2023-06-10T04:27:43;9.98;;;5.20;;
66874;SDS011;53784;52.630;4.896;2023-06-10T04:30:08;9.68;;;4.93;;
66874;SDS011;53784;52.630;4.896;2023-06-10T04:32:34;8.70;;;4.85;;
66874;SDS011;53784;52.630;4.896;2023-06-10T04:34:59;10.45;;;4.82;;
66874;SDS011;53784;52.630;4.896;2023-06-10T04:37:25;10.05;;;4.90;;
66874;SDS011;53784;52.630;4.896;2023-06-10T04:39:50;9.30;;;5.22;;
66874;SDS011;53784;52.630;4.896;2023-06-10T04:42:15;10.15;;;4.95;;
66874;SDS011;53784;52.630;4.896;2023-06-10T04:44:41;8.40;;;4.63;;
66874;SDS011;53784;52.630;4.896;2023-06-10T04:47:06;11.55;;;4.45;;
66874;SDS011;53784;52.630;4.896;2023-06-10T04:49:32;10.13;;;4.78;;
66874;SDS011;53784;52.630;4.896;2023-06-10T04:51:58;10.00;;;4.40;;
66874;SDS011;53784;52.630;4.896;2023-06-10T04:54:24;9.00;;;4.80;;
66874;SDS011;53784;52.630;4.896;2023-06-10T04:56:50;12.05;;;4.97;;
66874;SDS011;53784;52.630;4.896;2023-06-10T04:59:15;9.13;;;4.70;;
66874;SDS011;53784;52.630;4.896;2023-06-10T05:01:40;7.60;;;4.45;;
66874;SDS011;53784;52.630;4.896;2023-06-10T05:04:06;8.80;;;4.55;;
66874;SDS011;53784;52.630;4.896;2023-06-10T05:06:31;8.18;;;4.38;;
66874;SDS011;53784;52.630;4.896;2023-06-10T05:08:56;8.45;;;4.40;;
66874;SDS011;53784;52.630;4.896;2023-06-10T05:11:22;7.93;;;4.75;;
66874;SDS011;53784;52.630;4.896;2023-06-10T05:13:47;8.40;;;4.70;;
66874;SDS011;53784;52.630;4.896;2023-06-10T05:16:13;9.55;;;4.60;;
66874;SDS011;53784;52.630;4.896;2023-06-10T05:18:40;9.00;;;4.43;;
66874;SDS011;53784;52.630;4.896;2023-06-10T05:21:05;8.80;;;4.32;;
66874;SDS011;53784;52.630;4.896;2023-06-10T05:23:31;7.57;;;4.65;;
66874;SDS011;53784;52.630;4.896;2023-06-10T05:25:56;9.18;;;5.15;;
66874;SDS011;53784;52.630;4.896;2023-06-10T05:28:21;8.25;;;4.25;;
66874;SDS011;53784;52.630;4.896;2023-06-10T05:30:46;11.20;;;4.60;;
66874;SDS011;53784;52.630;4.896;2023-06-10T05:33:12;8.52;;;4.82;;
66874;SDS011;53784;52.630;4.896;2023-06-10T05:35:37;9.65;;;4.93;;
66874;SDS011;53784;52.630;4.896;2023-06-10T05:38:02;9.02;;;4.60;;
66874;SDS011;53784;52.630;4.896;2023-06-10T05:40:28;8.75;;;4.95;;
66874;SDS011;53784;52.630;4.896;2023-06-10T05:42:53;9.70;;;4.50;;
66874;SDS011;53784;52.630;4.896;2023-06-10T05:45:18;8.50;;;4.70;;
66874;SDS011;53784;52.630;4.896;2023-06-10T05:47:44;9.30;;;4.88;;
66874;SDS011;53784;52.630;4.896;2023-06-10T05:50:09;7.50;;;4.90;;
66874;SDS011;53784;52.630;4.896;2023-06-10T05:52:35;9.85;;;4.47;;
66874;SDS011;53784;52.630;4.896;2023-06-10T05:55:04;8.13;;;4.82;;
66874;SDS011;53784;52.630;4.896;2023-06-10T05:57:30;9.43;;;4.78;;
66874;SDS011;53784;52.630;4.896;2023-06-10T05:59:55;9.48;;;4.97;;
66874;SDS011;53784;52.630;4.896;2023-06-10T06:02:20;7.53;;;4.60;;
66874;SDS011;53784;52.630;4.896;2023-06-10T06:04:45;8.23;;;4.93;;
66874;SDS011;53784;52.630;4.896;2023-06-10T06:07:11;10.70;;;5.00;;
66874;SDS011;53784;52.630;4.896;2023-06-10T06:09:36;8.07;;;4.93;;
66874;SDS011;53784;52.630;4.896;2023-06-10T06:12:01;8.23;;;4.35;;
66874;SDS011;53784;52.630;4.896;2023-06-10T06:14:30;8.57;;;4.80;;
66874;SDS011;53784;52.630;4.896;2023-06-10T06:16:56;10.13;;;4.80;;
66874;SDS011;53784;52.630;4.896;2023-06-10T06:19:21;8.68;;;4.60;;
66874;SDS011;53784;52.630;4.896;2023-06-10T06:21:46;8.03;;;5.03;;
66874;SDS011;53784;52.630;4.896;2023-06-10T06:24:11;8.27;;;4.77;;
66874;SDS011;53784;52.630;4.896;2023-06-10T06:26:37;7.60;;;4.30;;
66874;SDS011;53784;52.630;4.896;2023-06-10T06:29:02;10.33;;;4.90;;
66874;SDS011;53784;52.630;4.896;2023-06-10T06:31:27;8.40;;;4.72;;
66874;SDS011;53784;52.630;4.896;2023-06-10T06:33:53;8.97;;;4.73;;
66874;SDS011;53784;52.630;4.896;2023-06-10T06:36:18;9.10;;;4.25;;
66874;SDS011;53784;52.630;4.896;2023-06-10T06:38:44;7.70;;;4.60;;
66874;SDS011;53784;52.630;4.896;2023-06-10T06:41:09;9.07;;;4.65;;
66874;SDS011;53784;52.630;4.896;2023-06-10T06:43:34;7.82;;;4.60;;
66874;SDS011;53784;52.630;4.896;2023-06-10T06:45:59;7.83;;;4.20;;
66874;SDS011;53784;52.630;4.896;2023-06-10T06:48:25;8.30;;;4.60;;
66874;SDS011;53784;52.630;4.896;2023-06-10T06:50:50;7.15;;;4.40;;
66874;SDS011;53784;52.630;4.896;2023-06-10T06:53:16;7.28;;;4.50;;
66874;SDS011;53784;52.630;4.896;2023-06-10T06:55:41;6.57;;;4.10;;
66874;SDS011;53784;52.630;4.896;2023-06-10T06:58:06;10.60;;;4.50;;
66874;SDS011;53784;52.630;4.896;2023-06-10T07:00:32;9.37;;;4.47;;
66874;SDS011;53784;52.630;4.896;2023-06-10T07:02:57;8.50;;;4.40;;
66874;SDS011;53784;52.630;4.896;2023-06-10T07:05:23;7.63;;;4.40;;
66874;SDS011;53784;52.630;4.896;2023-06-10T07:07:51;8.73;;;4.18;;
66874;SDS011;53784;52.630;4.896;2023-06-10T07:10:19;7.22;;;4.03;;
66874;SDS011;53784;52.630;4.896;2023-06-10T07:12:48;7.82;;;4.30;;
66874;SDS011;53784;52.630;4.896;2023-06-10T07:15:13;7.53;;;4.30;;
66874;SDS011;53784;52.630;4.896;2023-06-10T07:17:39;8.98;;;4.07;;
66874;SDS011;53784;52.630;4.896;2023-06-10T07:20:04;10.73;;;4.40;;
66874;SDS011;53784;52.630;4.896;2023-06-10T07:22:30;6.25;;;3.97;;
66874;SDS011;53784;52.630;4.896;2023-06-10T07:24:55;7.13;;;4.22;;
66874;SDS011;53784;52.630;4.896;2023-06-10T07:27:21;8.70;;;4.23;;
66874;SDS011;53784;52.630;4.896;2023-06-10T07:29:46;10.05;;;4.50;;
66874;SDS011;53784;52.630;4.896;2023-06-10T07:32:11;7.13;;;4.10;;
66874;SDS011;53784;52.630;4.896;2023-06-10T07:34:36;6.53;;;4.30;;
66874;SDS011;53784;52.630;4.896;2023-06-10T07:37:02;8.07;;;3.90;;
66874;SDS011;53784;52.630;4.896;2023-06-10T07:39:27;6.93;;;4.30;;
66874;SDS011;53784;52.630;4.896;2023-06-10T07:41:52;7.53;;;4.30;;
66874;SDS011;53784;52.630;4.896;2023-06-10T07:44:19;6.70;;;3.97;;
66874;SDS011;53784;52.630;4.896;2023-06-10T07:46:44;6.75;;;4.30;;
66874;SDS011;53784;52.630;4.896;2023-06-10T07:49:10;7.00;;;4.30;;
66874;SDS011;53784;52.630;4.896;2023-06-10T07:51:35;7.68;;;4.40;;
66874;SDS011;53784;52.630;4.896;2023-06-10T07:54:01;8.00;;;4.07;;
66874;SDS011;53784;52.630;4.896;2023-06-10T07:56:27;9.98;;;4.72;;
66874;SDS011;53784;52.630;4.896;2023-06-10T07:58:52;9.50;;;4.68;;
66874;SDS011;53784;52.630;4.896;2023-06-10T08:01:17;8.00;;;4.80;;
66874;SDS011;53784;52.630;4.896;2023-06-10T08:03:42;7.83;;;4.57;;
66874;SDS011;53784;52.630;4.896;2023-06-10T08:06:08;8.57;;;4.57;;
66874;SDS011;53784;52.630;4.896;2023-06-10T08:08:36;8.15;;;4.50;;
66874;SDS011;53784;52.630;4.896;2023-06-10T08:11:06;8.32;;;4.47;;
66874;SDS011;53784;52.630;4.896;2023-06-10T08:13:31;7.50;;;4.43;;
66874;SDS011;53784;52.630;4.896;2023-06-10T08:15:56;7.50;;;4.73;;
66874;SDS011;53784;52.630;4.896;2023-06-10T08:18:22;9.73;;;4.37;;
66874;SDS011;53784;52.630;4.896;2023-06-10T08:20:47;7.70;;;4.10;;
66874;SDS011;53784;52.630;4.896;2023-06-10T08:23:13;10.10;;;4.80;;
66874;SDS011;53784;52.630;4.896;2023-06-10T08:25:39;9.02;;;4.70;;
66874;SDS011;53784;52.630;4.896;2023-06-10T08:28:04;7.40;;;4.40;;
66874;SDS011;53784;52.630;4.896;2023-06-10T08:30:29;9.47;;;4.80;;
66874;SDS011;53784;52.630;4.896;2023-06-10T08:32:55;7.53;;;4.80;;
66874;SDS011;53784;52.630;4.896;2023-06-10T08:35:20;7.28;;;4.43;;
66874;SDS011;53784;52.630;4.896;2023-06-10T08:37:46;6.20;;;4.40;;
66874;SDS011;53784;52.630;4.896;2023-06-10T08:40:11;7.60;;;4.63;;
66874;SDS011;53784;52.630;4.896;2023-06-10T08:42:43;6.40;;;4.60;;
66874;SDS011;53784;52.630;4.896;2023-06-10T08:45:12;7.25;;;4.70;;
66874;SDS011;53784;52.630;4.896;2023-06-10T08:47:42;7.32;;;4.75;;
66874;SDS011;53784;52.630;4.896;2023-06-10T08:50:10;8.90;;;4.70;;
66874;SDS011;53784;52.630;4.896;2023-06-10T08:52:36;8.03;;;4.50;;
66874;SDS011;53784;52.630;4.896;2023-06-10T08:55:15;5.82;;;4.55;;
66874;SDS011;53784;52.630;4.896;2023-06-10T08:57:44;9.93;;;5.00;;
66874;SDS011;53784;52.630;4.896;2023-06-10T09:00:10;7.47;;;4.65;;
66874;SDS011;53784;52.630;4.896;2023-06-10T09:02:37;7.97;;;4.93;;
66874;SDS011;53784;52.630;4.896;2023-06-10T09:05:03;8.40;;;5.00;;
66874;SDS011;53784;52.630;4.896;2023-06-10T09:07:29;6.68;;;4.80;;
66874;SDS011;53784;52.630;4.896;2023-06-10T09:09:56;6.85;;;4.80;;
66874;SDS011;53784;52.630;4.896;2023-06-10T09:12:22;8.95;;;4.80;;
66874;SDS011;53784;52.630;4.896;2023-06-10T09:14:48;7.60;;;4.43;;
66874;SDS011;53784;52.630;4.896;2023-06-10T09:17:13;6.45;;;4.70;;
66874;SDS011;53784;52.630;4.896;2023-06-10T09:19:38;7.00;;;4.90;;
66874;SDS011;53784;52.630;4.896;2023-06-10T09:22:05;6.57;;;4.78;;
66874;SDS011;53784;52.630;4.896;2023-06-10T09:24:30;8.38;;;4.75;;
66874;SDS011;53784;52.630;4.896;2023-06-10T09:27:05;5.90;;;5.10;;
66874;SDS011;53784;52.630;4.896;2023-06-10T09:29:45;7.97;;;5.03;;
66874;SDS011;53784;52.630;4.896;2023-06-10T09:32:18;8.00;;;5.00;;
66874;SDS011;53784;52.630;4.896;2023-06-10T09:34:44;8.07;;;5.18;;
66874;SDS011;53784;52.630;4.896;2023-06-10T09:37:10;9.65;;;5.40;;
66874;SDS011;53784;52.630;4.896;2023-06-10T09:39:37;6.50;;;5.07;;
66874;SDS011;53784;52.630;4.896;2023-06-10T09:42:10;6.72;;;5.28;;
66874;SDS011;53784;52.630;4.896;2023-06-10T09:44:41;6.47;;;5.25;;
66874;SDS011;53784;52.630;4.896;2023-06-10T09:47:06;8.63;;;5.10;;
66874;SDS011;53784;52.630;4.896;2023-06-10T09:49:31;6.45;;;5.10;;
66874;SDS011;53784;52.630;4.896;2023-06-10T09:51:57;8.40;;;5.53;;
66874;SDS011;53784;52.630;4.896;2023-06-10T09:54:22;6.60;;;5.20;;
66874;SDS011;53784;52.630;4.896;2023-06-10T09:56:48;8.27;;;5.10;;
66874;SDS011;53784;52.630;4.896;2023-06-10T09:59:14;7.90;;;5.18;;
66874;SDS011;53784;52.630;4.896;2023-06-10T10:01:39;8.20;;;5.57;;
66874;SDS011;53784;52.630;4.896;2023-06-10T10:04:05;7.68;;;4.93;;
66874;SDS011;53784;52.630;4.896;2023-06-10T10:06:30;7.30;;;5.20;;
66874;SDS011;53784;52.630;4.896;2023-06-10T10:08:55;6.13;;;5.22;;
66874;SDS011;53784;52.630;4.896;2023-06-10T10:11:21;8.50;;;5.43;;
66874;SDS011;53784;52.630;4.896;2023-06-10T10:13:48;7.78;;;5.45;;
66874;SDS011;53784;52.630;4.896;2023-06-10T10:16:15;6.97;;;5.57;;
66874;SDS011;53784;52.630;4.896;2023-06-10T10:18:43;8.52;;;5.43;;
66874;SDS011;53784;52.630;4.896;2023-06-10T10:21:11;8.27;;;5.63;;
66874;SDS011;53784;52.630;4.896;2023-06-10T10:23:48;7.40;;;5.50;;
66874;SDS011;53784;52.630;4.896;2023-06-10T10:26:18;8.40;;;5.93;;
66874;SDS011;53784;52.630;4.896;2023-06-10T10:31:23;8.57;;;5.93;;
66874;SDS011;53784;52.630;4.896;2023-06-10T10:36:21;6.85;;;5.72;;
66874;SDS011;53784;52.630;4.896;2023-06-10T10:38:47;6.55;;;5.25;;
66874;SDS011;53784;52.630;4.896;2023-06-10T10:43:39;8.67;;;5.50;;
66874;SDS011;53784;52.630;4.896;2023-06-10T10:46:08;8.20;;;5.88;;
66874;SDS011;53784;52.630;4.896;2023-06-10T10:48:37;8.02;;;5.57;;
66874;SDS011;53784;52.630;4.896;2023-06-10T10:51:03;6.82;;;5.28;;
66874;SDS011;53784;52.630;4.896;2023-06-10T10:53:29;6.35;;;5.65;;
66874;SDS011;53784;52.630;4.896;2023-06-10T10:56:07;8.02;;;5.68;;
66874;SDS011;53784;52.630;4.896;2023-06-10T10:58:37;8.00;;;5.70;;
66874;SDS011;53784;52.630;4.896;2023-06-10T11:01:10;7.43;;;5.60;;
66874;SDS011;53784;52.630;4.896;2023-06-10T11:03:41;8.73;;;5.60;;
66874;SDS011;53784;52.630;4.896;2023-06-10T11:06:13;6.30;;;5.43;;
66874;SDS011;53784;52.630;4.896;2023-06-10T11:11:17;6.73;;;5.43;;
66874;SDS011;53784;52.630;4.896;2023-06-10T11:14:06;7.57;;;5.78;;
66874;SDS011;53784;52.630;4.896;2023-06-10T11:19:03;7.72;;;6.18;;
66874;SDS011;53784;52.630;4.896;2023-06-10T11:21:28;6.83;;;5.93;;
66874;SDS011;53784;52.630;4.896;2023-06-10T11:23:53;9.10;;;5.90;;
66874;SDS011;53784;52.630;4.896;2023-06-10T11:26:20;6.93;;;5.77;;
66874;SDS011;53784;52.630;4.896;2023-06-10T11:31:23;6.90;;;5.65;;
66874;SDS011;53784;52.630;4.896;2023-06-10T11:33:59;6.60;;;5.07;;
66874;SDS011;53784;52.630;4.896;2023-06-10T11:36:26;6.28;;;5.32;;
66874;SDS011;53784;52.630;4.896;2023-06-10T11:38:56;6.73;;;5.23;;
66874;SDS011;53784;52.630;4.896;2023-06-10T11:41:24;7.68;;;5.55;;
66874;SDS011;53784;52.630;4.896;2023-06-10T11:43:53;7.30;;;5.35;;
66874;SDS011;53784;52.630;4.896;2023-06-10T11:46:20;6.97;;;5.25;;
66874;SDS011;53784;52.630;4.896;2023-06-10T11:48:51;6.78;;;5.13;;
66874;SDS011;53784;52.630;4.896;2023-06-10T11:51:17;7.25;;;5.10;;
66874;SDS011;53784;52.630;4.896;2023-06-10T11:53:49;7.38;;;5.40;;
66874;SDS011;53784;52.630;4.896;2023-06-10T11:56:23;6.40;;;5.28;;
66874;SDS011;53784;52.630;4.896;2023-06-10T11:59:03;5.80;;;5.20;;
66874;SDS011;53784;52.630;4.896;2023-06-10T12:01:31;8.75;;;5.50;;
66874;SDS011;53784;52.630;4.896;2023-06-10T12:03:58;7.05;;;5.50;;
66874;SDS011;53784;52.630;4.896;2023-06-10T12:06:23;7.10;;;5.60;;
66874;SDS011;53784;52.630;4.896;2023-06-10T12:08:48;7.88;;;5.97;;
66874;SDS011;53784;52.630;4.896;2023-06-10T12:11:14;6.57;;;5.63;;
66874;SDS011;53784;52.630;4.896;2023-06-10T12:13:45;10.20;;;6.17;;
66874;SDS011;53784;52.630;4.896;2023-06-10T12:16:14;7.47;;;5.75;;
66874;SDS011;53784;52.630;4.896;2023-06-10T12:18:39;7.45;;;5.72;;
66874;SDS011;53784;52.630;4.896;2023-06-10T12:24:07;6.85;;;5.60;;
66874;SDS011;53784;52.630;4.896;2023-06-10T12:26:34;7.32;;;5.40;;
66874;SDS011;53784;52.630;4.896;2023-06-10T12:29:01;7.53;;;5.23;;
66874;SDS011;53784;52.630;4.896;2023-06-10T12:31:27;7.47;;;5.25;;
66874;SDS011;53784;52.630;4.896;2023-06-10T12:34:07;9.37;;;4.73;;
66874;SDS011;53784;52.630;4.896;2023-06-10T12:36:33;8.15;;;4.47;;
66874;SDS011;53784;52.630;4.896;2023-06-10T12:39:03;7.50;;;4.47;;
66874;SDS011;53784;52.630;4.896;2023-06-10T12:41:28;6.93;;;4.47;;
66874;SDS011;53784;52.630;4.896;2023-06-10T12:43:54;6.55;;;3.83;;
66874;SDS011;53784;52.630;4.896;2023-06-10T12:46:19;9.77;;;4.30;;
66874;SDS011;53784;52.630;4.896;2023-06-10T12:48:50;7.63;;;4.23;;
66874;SDS011;53784;52.630;4.896;2023-06-10T12:51:19;6.53;;;4.03;;
66874;SDS011;53784;52.630;4.896;2023-06-10T12:53:45;9.83;;;4.10;;
66874;SDS011;53784;52.630;4.896;2023-06-10T12:56:10;8.50;;;3.93;;
66874;SDS011;53784;52.630;4.896;2023-06-10T12:58:36;8.75;;;4.00;;
66874;SDS011;53784;52.630;4.896;2023-06-10T13:01:01;6.73;;;3.83;;
66874;SDS011;53784;52.630;4.896;2023-06-10T13:03:27;7.67;;;3.80;;
66874;SDS011;53784;52.630;4.896;2023-06-10T13:05:52;7.30;;;4.10;;
66874;SDS011;53784;52.630;4.896;2023-06-10T13:08:17;8.10;;;4.30;;
66874;SDS011;53784;52.630;4.896;2023-06-10T13:10:43;8.38;;;3.83;;
66874;SDS011;53784;52.630;4.896;2023-06-10T13:13:08;7.38;;;3.55;;
66874;SDS011;53784;52.630;4.896;2023-06-10T13:15:34;11.93;;;4.18;;
66874;SDS011;53784;52.630;4.896;2023-06-10T13:18:03;7.28;;;3.85;;
66874;SDS011;53784;52.630;4.896;2023-06-10T13:20:29;7.43;;;4.07;;
66874;SDS011;53784;52.630;4.896;2023-06-10T13:22:54;7.13;;;3.70;;
66874;SDS011;53784;52.630;4.896;2023-06-10T13:25:20;8.60;;;3.90;;
66874;SDS011;53784;52.630;4.896;2023-06-10T13:27:45;8.05;;;4.22;;
66874;SDS011;53784;52.630;4.896;2023-06-10T13:30:10;7.68;;;3.85;;
66874;SDS011;53784;52.630;4.896;2023-06-10T13:32:36;8.15;;;3.83;;
66874;SDS011;53784;52.630;4.896;2023-06-10T13:35:02;11.05;;;4.00;;
66874;SDS011;53784;52.630;4.896;2023-06-10T13:37:28;7.47;;;3.80;;
66874;SDS011;53784;52.630;4.896;2023-06-10T13:39:53;6.22;;;3.33;;
66874;SDS011;53784;52.630;4.896;2023-06-10T13:42:19;6.60;;;3.47;;
66874;SDS011;53784;52.630;4.896;2023-06-10T13:44:45;5.88;;;3.47;;
66874;SDS011;53784;52.630;4.896;2023-06-10T13:47:12;6.38;;;3.65;;
66874;SDS011;53784;52.630;4.896;2023-06-10T13:49:37;7.05;;;3.97;;
66874;SDS011;53784;52.630;4.896;2023-06-10T13:52:03;8.15;;;3.42;;
66874;SDS011;53784;52.630;4.896;2023-06-10T13:54:29;9.98;;;3.95;;
66874;SDS011;53784;52.630;4.896;2023-06-10T13:56:54;7.78;;;3.55;;
66874;SDS011;53784;52.630;4.896;2023-06-10T13:59:20;6.85;;;3.78;;
66874;SDS011;53784;52.630;4.896;2023-06-10T14:01:46;6.70;;;3.70;;
66874;SDS011;53784;52.630;4.896;2023-06-10T14:04:11;7.38;;;3.63;;
66874;SDS011;53784;52.630;4.896;2023-06-10T14:06:36;5.65;;;3.47;;
66874;SDS011;53784;52.630;4.896;2023-06-10T14:09:02;6.05;;;3.50;;
66874;SDS011;53784;52.630;4.896;2023-06-10T14:11:27;7.80;;;3.42;;
66874;SDS011;53784;52.630;4.896;2023-06-10T14:13:53;12.20;;;3.75;;
66874;SDS011;53784;52.630;4.896;2023-06-10T14:16:21;8.27;;;3.70;;
66874;SDS011;53784;52.630;4.896;2023-06-10T14:18:46;6.78;;;3.75;;
66874;SDS011;53784;52.630;4.896;2023-06-10T14:21:11;6.70;;;3.47;;
66874;SDS011;53784;52.630;4.896;2023-06-10T14:23:37;6.45;;;3.50;;
66874;SDS011;53784;52.630;4.896;2023-06-10T14:26:02;5.50;;;3.33;;
66874;SDS011;53784;52.630;4.896;2023-06-10T14:28:28;7.03;;;3.35;;
66874;SDS011;53784;52.630;4.896;2023-06-10T14:30:53;6.85;;;3.25;;
66874;SDS011;53784;52.630;4.896;2023-06-10T14:33:19;5.75;;;3.35;;
66874;SDS011;53784;52.630;4.896;2023-06-10T14:35:44;7.30;;;3.30;;
66874;SDS011;53784;52.630;4.896;2023-06-10T14:38:10;6.40;;;3.08;;
66874;SDS011;53784;52.630;4.896;2023-06-10T14:40:35;6.25;;;3.50;;
66874;SDS011;53784;52.630;4.896;2023-06-10T14:43:00;6.95;;;3.22;;
66874;SDS011;53784;52.630;4.896;2023-06-10T14:45:29;5.57;;;3.05;;
66874;SDS011;53784;52.630;4.896;2023-06-10T14:47:54;6.00;;;3.15;;
66874;SDS011;53784;52.630;4.896;2023-06-10T14:50:20;5.45;;;3.17;;
66874;SDS011;53784;52.630;4.896;2023-06-10T14:52:45;5.93;;;3.13;;
66874;SDS011;53784;52.630;4.896;2023-06-10T14:55:10;7.63;;;3.25;;
66874;SDS011;53784;52.630;4.896;2023-06-10T14:57:35;6.55;;;3.30;;
66874;SDS011;53784;52.630;4.896;2023-06-10T15:00:01;7.43;;;3.30;;
66874;SDS011;53784;52.630;4.896;2023-06-10T15:02:27;6.60;;;2.92;;